createdAt,value
2016-06-08T00:00:52.042Z,1014.27
2016-06-08T00:01:52.031Z,1014.29
2016-06-08T00:02:52.017Z,1014.31
2016-06-08T00:03:52.003Z,1014.35
2016-06-08T00:04:52.053Z,1014.36
2016-06-08T00:05:51.994Z,1014.37
2016-06-08T00:06:51.981Z,1014.33
2016-06-08T00:07:51.968Z,1014.33
2016-06-08T00:08:51.986Z,1014.35
2016-06-08T00:09:51.942Z,1014.33
2016-06-08T00:10:51.929Z,1014.3
2016-06-08T00:11:51.916Z,1014.29
2016-06-08T00:12:51.949Z,1014.31
2016-06-08T00:13:51.890Z,1014.3
2016-06-08T00:14:51.877Z,1014.29
2016-06-08T00:15:51.865Z,1014.27
2016-06-08T00:16:51.852Z,1014.23
2016-06-08T00:17:51.838Z,1014.27
2016-06-08T00:18:51.826Z,1014.26
2016-06-08T00:19:51.812Z,1014.26
2016-06-08T00:20:51.799Z,1014.25
2016-06-08T00:21:51.802Z,1014.27
2016-06-08T00:22:51.790Z,1014.3
2016-06-08T00:23:51.776Z,1014.28
2016-06-08T00:24:51.763Z,1014.22
2016-06-08T00:25:51.751Z,1014.27
2016-06-08T00:26:51.753Z,1014.24
2016-06-08T00:27:51.740Z,1014.24
2016-06-08T00:28:51.711Z,1014.25
2016-06-08T00:29:51.698Z,1014.22
2016-06-08T00:30:51.686Z,1014.22
2016-06-08T00:31:51.673Z,1014.19
2016-06-08T00:32:51.676Z,1014.23
2016-06-08T00:33:51.663Z,1014.23
2016-06-08T00:34:51.650Z,1014.22
2016-06-08T00:35:51.636Z,1014.2
2016-06-08T00:36:51.624Z,1014.22
2016-06-08T00:37:51.611Z,1014.24
2016-06-08T00:38:51.597Z,1014.26
2016-06-08T00:39:51.586Z,1014.29
2016-06-08T00:40:51.572Z,1014.28
2016-06-08T00:41:51.560Z,1014.28
2016-06-08T00:42:51.547Z,1014.29
2016-06-08T00:43:51.533Z,1014.29
2016-06-08T00:44:51.521Z,1014.3
2016-06-08T00:45:51.523Z,1014.28
2016-06-08T00:46:51.510Z,1014.26
2016-06-08T00:47:51.497Z,1014.26
2016-06-08T00:48:51.485Z,1014.22
2016-06-08T00:49:51.471Z,1014.23
2016-06-08T00:50:51.459Z,1014.23
2016-06-08T00:51:51.445Z,1014.19
2016-06-08T00:52:51.432Z,1014.23
2016-06-08T00:53:51.420Z,1014.2
2016-06-08T00:54:51.406Z,1014.22
2016-06-08T00:55:51.394Z,1014.2
2016-06-08T00:56:51.396Z,1014.22
2016-06-08T00:57:51.384Z,1014.18
2016-06-08T00:58:51.371Z,1014.18
2016-06-08T00:59:51.373Z,1014.14
2016-06-08T01:00:51.345Z,1014.16
2016-06-08T01:01:51.331Z,1014.11
2016-06-08T01:02:51.319Z,1014.14
2016-06-08T01:03:51.384Z,1014.13
2016-06-08T01:04:51.293Z,1014.12
2016-06-08T01:05:51.358Z,1014.09
2016-06-08T01:06:51.267Z,1014.11
2016-06-08T01:07:51.316Z,1014.11
2016-06-08T01:08:51.257Z,1014.11
2016-06-08T01:09:51.244Z,1014.13
2016-06-08T01:10:51.230Z,1014.1
2016-06-08T01:11:51.922Z,1014.12
2016-06-08T01:12:51.205Z,1014.1
2016-06-08T01:13:51.239Z,1014.11
2016-06-08T01:14:51.195Z,1014.12
2016-06-08T01:15:51.213Z,1014.13
2016-06-08T01:16:51.154Z,1014.14
2016-06-08T01:17:51.140Z,1014.14
2016-06-08T01:18:51.127Z,1014.13
2016-06-08T01:19:51.115Z,1014.16
2016-06-08T01:20:51.118Z,1014.11
2016-06-08T01:21:51.088Z,1014.13
2016-06-08T01:22:51.091Z,1014.09
2016-06-08T01:23:51.079Z,1014.1
2016-06-08T01:24:51.065Z,1014.05
2016-06-08T01:25:51.053Z,1014.05
2016-06-08T01:26:51.039Z,1014.02
2016-06-08T01:27:51.027Z,1014.06
2016-06-08T01:28:51.014Z,1014.06
2016-06-08T01:29:51.001Z,1014.1
2016-06-08T01:30:50.988Z,1014.1
2016-06-08T01:31:50.975Z,1014.11
2016-06-08T01:32:50.962Z,1014.11
2016-06-08T01:33:50.949Z,1014.1
2016-06-08T01:34:50.936Z,1014.11
2016-06-08T01:35:50.939Z,1014.11
2016-06-08T01:36:50.911Z,1014.1
2016-06-08T01:37:50.897Z,1014.08
2016-06-08T01:38:50.884Z,1014.08
2016-06-08T01:39:50.871Z,1014.04
2016-06-08T01:40:50.874Z,1014.08
2016-06-08T01:41:50.861Z,1014.03
2016-06-08T01:42:50.848Z,1013.98
2016-06-08T01:43:50.836Z,1013.97
2016-06-08T01:44:50.822Z,1014.01
2016-06-08T01:45:50.810Z,1014.05
2016-06-08T01:46:50.797Z,1014.03
2016-06-08T01:47:50.783Z,1014
2016-06-08T01:48:50.771Z,1014.01
2016-06-08T01:49:50.757Z,1013.98
2016-06-08T01:50:50.745Z,1013.97
2016-06-08T01:51:50.732Z,1013.93
2016-06-08T01:52:50.735Z,1013.94
2016-06-08T01:53:50.721Z,1013.91
2016-06-08T01:54:50.709Z,1013.94
2016-06-08T01:55:50.695Z,1013.95
2016-06-08T01:56:50.682Z,1013.96
2016-06-08T01:57:50.670Z,1013.97
2016-06-08T01:58:50.657Z,1014
2016-06-08T01:59:50.645Z,1013.97
2016-06-08T02:00:50.631Z,1014
2016-06-08T02:01:50.618Z,1014
2016-06-08T02:02:50.606Z,1013.99
2016-06-08T02:03:50.592Z,1014
2016-06-08T02:04:50.579Z,1014.03
2016-06-08T02:05:50.566Z,1014.03
2016-06-08T02:06:50.553Z,1014.04
2016-06-08T02:07:50.541Z,1014.01
2016-06-08T02:08:50.528Z,1014.01
2016-06-08T02:09:50.514Z,1014.02
2016-06-08T02:10:50.517Z,1013.97
2016-06-08T02:11:51.176Z,1014
2016-06-08T02:12:50.492Z,1013.99
2016-06-08T02:13:50.478Z,1013.96
2016-06-08T02:14:50.466Z,1013.98
2016-06-08T02:15:50.453Z,1013.97
2016-06-08T02:16:50.440Z,1013.96
2016-06-08T02:17:50.411Z,1013.99
2016-06-08T02:18:50.414Z,1013.99
2016-06-08T02:19:50.401Z,1014.04
2016-06-08T02:20:50.388Z,1014.04
2016-06-08T02:21:50.374Z,1014.01
2016-06-08T02:22:50.362Z,1014
2016-06-08T02:23:50.349Z,1013.99
2016-06-08T02:24:50.352Z,1013.99
2016-06-08T02:25:50.323Z,1014.02
2016-06-08T02:26:50.498Z,1014.04
2016-06-08T02:27:50.922Z,1013.97
2016-06-08T02:28:50.300Z,1014.02
2016-06-08T02:29:50.287Z,1014.01
2016-06-08T02:30:50.273Z,1014.03
2016-06-08T02:31:50.262Z,1014
2016-06-08T02:32:50.248Z,1014.01
2016-06-08T02:33:50.236Z,1014.05
2016-06-08T02:34:50.223Z,1014.03
2016-06-08T02:35:50.209Z,1014.01
2016-06-08T02:36:50.212Z,1013.98
2016-06-08T02:37:50.184Z,1013.96
2016-06-08T02:38:50.170Z,1013.96
2016-06-08T02:39:50.158Z,1013.96
2016-06-08T02:40:50.145Z,1013.97
2016-06-08T02:41:50.132Z,1013.95
2016-06-08T02:42:50.119Z,1014.02
2016-06-08T02:43:50.105Z,1014
2016-06-08T02:44:50.093Z,1014.06
2016-06-08T02:45:50.081Z,1014.06
2016-06-08T02:46:50.066Z,1014.06
2016-06-08T02:47:50.055Z,1014.02
2016-06-08T02:48:50.041Z,1014.03
2016-06-08T02:49:50.044Z,1014.03
2016-06-08T02:50:50.016Z,1014.03
2016-06-08T02:51:50.002Z,1014.03
2016-06-08T02:52:50.005Z,1014.02
2016-06-08T02:53:49.977Z,1014.01
2016-06-08T02:54:49.963Z,1014.02
2016-06-08T02:55:49.982Z,1013.96
2016-06-08T02:56:49.954Z,1013.95
2016-06-08T02:57:49.925Z,1013.95
2016-06-08T02:58:49.912Z,1013.91
2016-06-08T02:59:49.914Z,1013.94
2016-06-08T03:00:49.901Z,1013.93
2016-06-08T03:01:49.890Z,1013.93
2016-06-08T03:02:49.875Z,1013.95
2016-06-08T03:03:49.863Z,1013.94
2016-06-08T03:04:49.850Z,1013.92
2016-06-08T03:05:49.837Z,1013.95
2016-06-08T03:06:49.825Z,1013.97
2016-06-08T03:07:49.811Z,1013.96
2016-06-08T03:08:49.798Z,1013.95
2016-06-08T03:09:49.786Z,1013.94
2016-06-08T03:10:49.772Z,1013.89
2016-06-08T03:11:49.759Z,1013.9
2016-06-08T03:12:49.997Z,1013.88
2016-06-08T03:13:49.733Z,1013.87
2016-06-08T03:14:49.721Z,1013.87
2016-06-08T03:15:49.707Z,1013.87
2016-06-08T03:16:49.694Z,1013.83
2016-06-08T03:17:49.683Z,1013.87
2016-06-08T03:18:49.669Z,1013.87
2016-06-08T03:19:49.672Z,1013.84
2016-06-08T03:20:49.643Z,1013.87
2016-06-08T03:21:49.693Z,1013.87
2016-06-08T03:22:49.617Z,1013.87
2016-06-08T03:23:49.604Z,1013.89
2016-06-08T03:24:49.607Z,1013.89
2016-06-08T03:25:49.579Z,1013.87
2016-06-08T03:26:49.566Z,1013.93
2016-06-08T03:27:49.584Z,1013.92
2016-06-08T03:28:49.540Z,1013.92
2016-06-08T03:29:49.636Z,1013.94
2016-06-08T03:30:49.514Z,1013.96
2016-06-08T03:31:49.500Z,1013.99
2016-06-08T03:32:49.487Z,1013.97
2016-06-08T03:33:49.491Z,1014
2016-06-08T03:34:49.478Z,1013.98
2016-06-08T03:35:49.512Z,1013.98
2016-06-08T03:36:49.451Z,1013.99
2016-06-08T03:37:49.423Z,1013.97
2016-06-08T03:38:49.426Z,1013.97
2016-06-08T03:39:49.413Z,1014
2016-06-08T03:40:49.400Z,1014.01
2016-06-08T03:41:49.387Z,1014.01
2016-06-08T03:42:49.375Z,1013.99
2016-06-08T03:43:49.361Z,1014.03
2016-06-08T03:44:49.348Z,1014
2016-06-08T03:45:49.336Z,1013.98
2016-06-08T03:46:49.322Z,1014.01
2016-06-08T03:47:49.309Z,1014.04
2016-06-08T03:48:49.297Z,1014
2016-06-08T03:49:49.283Z,1014.04
2016-06-08T03:50:49.271Z,1014.04
2016-06-08T03:51:49.257Z,1014.04
2016-06-08T03:52:49.244Z,1014.05
2016-06-08T03:53:49.232Z,1014.05
2016-06-08T03:54:49.219Z,1014.05
2016-06-08T03:55:49.206Z,1014.02
2016-06-08T03:56:49.193Z,1014.01
2016-06-08T03:57:49.179Z,1014.08
2016-06-08T03:58:49.168Z,1014.08
2016-06-08T03:59:49.155Z,1014.06
2016-06-08T04:00:49.141Z,1014.07
2016-06-08T04:01:49.128Z,1014.06
2016-06-08T04:02:49.115Z,1014.07
2016-06-08T04:03:49.103Z,1014.06
2016-06-08T04:04:49.089Z,1014.11
2016-06-08T04:05:49.076Z,1014.1
2016-06-08T04:06:49.064Z,1014.13
2016-06-08T04:07:49.051Z,1014.11
2016-06-08T04:08:49.037Z,1014.15
2016-06-08T04:09:49.025Z,1014.16
2016-06-08T04:10:49.012Z,1014.14
2016-06-08T04:11:48.999Z,1014.14
2016-06-08T04:12:48.986Z,1014.14
2016-06-08T04:13:48.972Z,1014.11
2016-06-08T04:14:48.961Z,1014.13
2016-06-08T04:15:48.948Z,1014.13
2016-06-08T04:16:48.934Z,1014.1
2016-06-08T04:17:48.921Z,1014.16
2016-06-08T04:18:48.908Z,1014.17
2016-06-08T04:19:48.896Z,1014.16
2016-06-08T04:20:48.882Z,1014.19
2016-06-08T04:21:48.869Z,1014.17
2016-06-08T04:22:48.857Z,1014.17
2016-06-08T04:23:48.844Z,1014.18
2016-06-08T04:24:48.830Z,1014.22
2016-06-08T04:25:48.818Z,1014.21
2016-06-08T04:26:48.821Z,1014.21
2016-06-08T04:27:48.807Z,1014.2
2016-06-08T04:28:48.779Z,1014.22
2016-06-08T04:29:48.781Z,1014.26
2016-06-08T04:30:48.754Z,1014.24
2016-06-08T04:31:48.741Z,1014.22
2016-06-08T04:32:48.727Z,1014.2
2016-06-08T04:33:48.730Z,1014.21
2016-06-08T04:34:48.717Z,1014.18
2016-06-08T04:35:48.704Z,1014.23
2016-06-08T04:36:48.675Z,1014.18
2016-06-08T04:37:48.678Z,1014.2
2016-06-08T04:38:48.665Z,1014.22
2016-06-08T04:39:48.653Z,1014.2
2016-06-08T04:40:48.639Z,1014.17
2016-06-08T04:41:48.626Z,1014.17
2016-06-08T04:42:49.161Z,1014.18
2016-06-08T04:43:48.600Z,1014.16
2016-06-08T04:44:48.588Z,1014.15
2016-06-08T04:45:48.574Z,1014.17
2016-06-08T04:46:48.562Z,1014.17
2016-06-08T04:47:48.550Z,1014.14
2016-06-08T04:48:48.536Z,1014.15
2016-06-08T04:49:48.522Z,1014.11
2016-06-08T04:50:48.510Z,1014.16
2016-06-08T04:51:48.513Z,1014.13
2016-06-08T04:52:48.484Z,1014.16
2016-06-08T04:53:48.488Z,1014.14
2016-06-08T04:54:48.458Z,1014.16
2016-06-08T04:55:48.446Z,1014.15
2016-06-08T04:56:48.432Z,1014.15
2016-06-08T04:57:48.419Z,1014.15
2016-06-08T04:58:48.407Z,1014.17
2016-06-08T04:59:48.393Z,1014.19
2016-06-08T05:00:48.381Z,1014.12
2016-06-08T05:01:48.383Z,1014.15
2016-06-08T05:02:48.354Z,1014.16
2016-06-08T05:03:48.343Z,1014.13
2016-06-08T05:04:48.345Z,1014.14
2016-06-08T05:05:48.316Z,1014.14
2016-06-08T05:06:48.306Z,1014.16
2016-06-08T05:07:48.334Z,1014.14
2016-06-08T05:08:48.317Z,1014.18
2016-06-08T05:09:48.314Z,1014.16
2016-06-08T05:10:48.296Z,1014.16
2016-06-08T05:11:48.306Z,1014.17
2016-06-08T05:12:48.298Z,1014.18
2016-06-08T05:13:48.288Z,1014.17
2016-06-08T05:14:48.279Z,1014.17
2016-06-08T05:15:48.270Z,1014.19
2016-06-08T05:16:48.260Z,1014.19
2016-06-08T05:17:48.249Z,1014.21
2016-06-08T05:18:48.237Z,1014.19
2016-06-08T05:19:48.225Z,1014.2
2016-06-08T05:20:48.214Z,1014.21
2016-06-08T05:21:48.202Z,1014.22
2016-06-08T05:22:48.188Z,1014.19
2016-06-08T05:23:48.177Z,1014.18
2016-06-08T05:24:48.180Z,1014.16
2016-06-08T05:25:48.152Z,1014.2
2016-06-08T05:26:48.155Z,1014.17
2016-06-08T05:27:48.283Z,1014.19
2016-06-08T05:28:48.114Z,1014.15
2016-06-08T05:29:48.117Z,1014.16
2016-06-08T05:30:48.104Z,1014.18
2016-06-08T05:31:48.091Z,1014.13
2016-06-08T05:32:48.079Z,1014.15
2016-06-08T05:33:48.066Z,1014.16
2016-06-08T05:34:48.053Z,1014.09
2016-06-08T05:35:48.040Z,1014.14
2016-06-08T05:36:48.026Z,1014.1
2016-06-08T05:37:48.015Z,1014.15
2016-06-08T05:38:48.001Z,1014.11
2016-06-08T05:39:47.987Z,1014.13
2016-06-08T05:40:47.991Z,1014.12
2016-06-08T05:41:48.040Z,1014.1
2016-06-08T05:42:47.965Z,1014.12
2016-06-08T05:43:47.952Z,1014.12
2016-06-08T05:44:47.939Z,1014.11
2016-06-08T05:45:47.926Z,1014.12
2016-06-08T05:46:47.914Z,1014.12
2016-06-08T05:47:47.900Z,1014.11
2016-06-08T05:48:47.887Z,1014.13
2016-06-08T05:49:47.875Z,1014.14
2016-06-08T05:50:47.861Z,1014.11
2016-06-08T05:51:47.849Z,1014.14
2016-06-08T05:52:47.852Z,1014.12
2016-06-08T05:53:47.885Z,1014.12
2016-06-08T05:54:47.810Z,1014.14
2016-06-08T05:55:47.859Z,1014.14
2016-06-08T05:56:47.800Z,1014.09
2016-06-08T05:57:47.927Z,1014.11
2016-06-08T05:58:48.461Z,1014.12
2016-06-08T05:59:47.760Z,1014.12
2016-06-08T06:00:47.748Z,1014.12
2016-06-08T06:01:47.735Z,1014.12
2016-06-08T06:02:47.721Z,1014.12
2016-06-08T06:03:47.709Z,1014.13
2016-06-08T06:04:47.695Z,1014.09
2016-06-08T06:05:47.699Z,1014.13
2016-06-08T06:06:47.686Z,1014.12
2016-06-08T06:07:47.673Z,1014.09
2016-06-08T06:08:47.659Z,1014.11
2016-06-08T06:09:47.647Z,1014.13
2016-06-08T06:10:47.634Z,1014.07
2016-06-08T06:11:47.620Z,1014.1
2016-06-08T06:12:47.608Z,1014.11
2016-06-08T06:13:47.970Z,1014.11
2016-06-08T06:14:47.598Z,1014.13
2016-06-08T06:15:47.585Z,1014.11
2016-06-08T06:16:47.572Z,1014.1
2016-06-08T06:17:47.559Z,1014.09
2016-06-08T06:18:47.546Z,1014.07
2016-06-08T06:19:47.533Z,1014.06
2016-06-08T06:20:47.520Z,1014.09
2016-06-08T06:21:47.522Z,1014.07
2016-06-08T06:22:47.494Z,1014.07
2016-06-08T06:23:47.497Z,1014.06
2016-06-08T06:24:47.484Z,1014.11
2016-06-08T06:25:47.471Z,1014.09
2016-06-08T06:26:47.458Z,1014.12
2016-06-08T06:27:47.805Z,1014.16
2016-06-08T06:28:47.432Z,1014.17
2016-06-08T06:29:47.419Z,1014.21
2016-06-08T06:30:47.421Z,1014.22
2016-06-08T06:31:47.409Z,1014.18
2016-06-08T06:32:47.397Z,1014.21
2016-06-08T06:33:47.383Z,1014.24
2016-06-08T06:34:47.370Z,1014.23
2016-06-08T06:35:47.358Z,1014.26
2016-06-08T06:36:47.345Z,1014.24
2016-06-08T06:37:47.332Z,1014.21
2016-06-08T06:38:47.318Z,1014.25
2016-06-08T06:39:47.321Z,1014.21
2016-06-08T06:40:47.324Z,1014.17
2016-06-08T06:41:47.295Z,1014.18
2016-06-08T06:42:47.282Z,1014.16
2016-06-08T06:43:47.395Z,1014.12
2016-06-08T06:44:47.257Z,1014.1
2016-06-08T06:45:47.244Z,1014.12
2016-06-08T06:46:47.231Z,1014.11
2016-06-08T06:47:47.234Z,1014.12
2016-06-08T06:48:47.220Z,1014.1
2016-06-08T06:49:47.208Z,1014.11
2016-06-08T06:50:47.194Z,1014.17
2016-06-08T06:51:47.181Z,1014.14
2016-06-08T06:52:47.169Z,1014.14
2016-06-08T06:53:47.156Z,1014.17
2016-06-08T06:54:47.144Z,1014.15
2016-06-08T06:55:47.146Z,1014.18
2016-06-08T06:56:47.133Z,1014.17
2016-06-08T06:57:47.291Z,1014.19
2016-06-08T06:58:47.216Z,1014.19
2016-06-08T06:59:47.110Z,1014.19
2016-06-08T07:00:47.080Z,1014.18
2016-06-08T07:01:47.068Z,1014.21
2016-06-08T07:02:47.071Z,1014.18
2016-06-08T07:03:47.043Z,1014.13
2016-06-08T07:04:47.046Z,1014.13
2016-06-08T07:05:47.031Z,1014.13
2016-06-08T07:06:47.019Z,1014.12
2016-06-08T07:07:47.022Z,1014.1
2016-06-08T07:08:46.993Z,1014.09
2016-06-08T07:09:46.980Z,1014.09
2016-06-08T07:10:46.982Z,1014.1
2016-06-08T07:11:46.985Z,1014.13
2016-06-08T07:12:46.957Z,1014.11
2016-06-08T07:13:47.631Z,1014.11
2016-06-08T07:14:46.947Z,1014.15
2016-06-08T07:15:46.933Z,1014.11
2016-06-08T07:16:46.920Z,1014.09
2016-06-08T07:17:46.909Z,1014.11
2016-06-08T07:18:46.895Z,1014.15
2016-06-08T07:19:46.887Z,1014.13
2016-06-08T07:20:46.888Z,1014.1
2016-06-08T07:21:46.862Z,1014.1
2016-06-08T07:22:46.847Z,1014.11
2016-06-08T07:23:46.837Z,1014.12
2016-06-08T07:24:46.826Z,1014.1
2016-06-08T07:25:46.828Z,1014.09
2016-06-08T07:26:46.815Z,1014.11
2016-06-08T07:27:47.365Z,1014.1
2016-06-08T07:28:46.853Z,1014.12
2016-06-08T07:29:46.777Z,1014.09
2016-06-08T07:30:46.780Z,1014.14
2016-06-08T07:31:46.766Z,1014.13
2016-06-08T07:32:46.753Z,1014.15
2016-06-08T07:33:46.741Z,1014.15
2016-06-08T07:34:46.744Z,1014.14
2016-06-08T07:35:46.720Z,1014.16
2016-06-08T07:36:46.723Z,1014.17
2016-06-08T07:37:46.711Z,1014.13
2016-06-08T07:38:46.698Z,1014.11
2016-06-08T07:39:46.684Z,1014.14
2016-06-08T07:40:46.677Z,1014.17
2016-06-08T07:41:46.664Z,1014.15
2016-06-08T07:42:46.760Z,1014.17
2016-06-08T07:43:46.653Z,1014.13
2016-06-08T07:44:46.641Z,1014.14
2016-06-08T07:45:46.627Z,1014.15
2016-06-08T07:46:46.615Z,1014.13
2016-06-08T07:47:46.617Z,1014.13
2016-06-08T07:48:46.604Z,1014.12
2016-06-08T07:49:46.591Z,1014.08
2016-06-08T07:50:46.589Z,1014.11
2016-06-08T07:51:46.576Z,1014.13
2016-06-08T07:52:46.563Z,1014.18
2016-06-08T07:53:46.551Z,1014.14
2016-06-08T07:54:46.537Z,1014.15
2016-06-08T07:55:46.540Z,1014.12
2016-06-08T07:56:46.529Z,1014.16
2016-06-08T07:57:46.516Z,1014.12
2016-06-08T07:58:46.503Z,1014.13
2016-06-08T07:59:46.506Z,1014.13
2016-06-08T08:00:46.492Z,1014.11
2016-06-08T08:01:46.480Z,1014.1
2016-06-08T08:02:46.483Z,1014.08
2016-06-08T08:03:46.470Z,1014.1
2016-06-08T08:04:46.456Z,1014.12
2016-06-08T08:05:46.444Z,1014.12
2016-06-08T08:06:46.431Z,1014.16
2016-06-08T08:07:46.434Z,1014.15
2016-06-08T08:08:46.422Z,1014.16
2016-06-08T08:09:46.408Z,1014.14
2016-06-08T08:10:46.395Z,1014.13
2016-06-08T08:11:46.400Z,1014.2
2016-06-08T08:12:46.388Z,1014.2
2016-06-08T08:13:46.375Z,1014.17
2016-06-08T08:14:46.369Z,1014.19
2016-06-08T08:15:46.357Z,1014.24
2016-06-08T08:16:46.359Z,1014.18
2016-06-08T08:17:46.346Z,1014.22
2016-06-08T08:18:46.333Z,1014.21
2016-06-08T08:19:46.321Z,1014.23
2016-06-08T08:20:46.307Z,1014.23
2016-06-08T08:21:46.310Z,1014.22
2016-06-08T08:22:46.296Z,1014.26
2016-06-08T08:23:46.300Z,1014.26
2016-06-08T08:24:46.288Z,1014.23
2016-06-08T08:25:46.273Z,1014.21
2016-06-08T08:26:46.262Z,1014.22
2016-06-08T08:27:46.248Z,1014.26
2016-06-08T08:28:46.282Z,1014.23
2016-06-08T08:29:46.238Z,1014.26
2016-06-08T08:30:46.287Z,1014.21
2016-06-08T08:31:46.228Z,1014.23
2016-06-08T08:32:46.214Z,1014.25
2016-06-08T08:33:46.201Z,1014.24
2016-06-08T08:34:46.204Z,1014.26
2016-06-08T08:35:46.191Z,1014.25
2016-06-08T08:36:46.194Z,1014.23
2016-06-08T08:37:46.181Z,1014.28
2016-06-08T08:38:46.294Z,1014.25
2016-06-08T08:39:46.172Z,1014.21
2016-06-08T08:40:46.174Z,1014.22
2016-06-08T08:41:46.145Z,1014.26
2016-06-08T08:42:46.148Z,1014.26
2016-06-08T08:43:46.136Z,1014.24
2016-06-08T08:44:46.122Z,1014.24
2016-06-08T08:45:46.125Z,1014.26
2016-06-08T08:46:46.096Z,1014.26
2016-06-08T08:47:46.099Z,1014.27
2016-06-08T08:48:46.085Z,1014.29
2016-06-08T08:49:46.088Z,1014.29
2016-06-08T08:50:46.076Z,1014.28
2016-06-08T08:51:46.062Z,1014.27
2016-06-08T08:52:46.065Z,1014.24
2016-06-08T08:53:46.052Z,1014.3
2016-06-08T08:54:46.054Z,1014.27
2016-06-08T08:55:46.042Z,1014.26
2016-06-08T08:56:46.029Z,1014.28
2016-06-08T08:57:46.032Z,1014.2
2016-06-08T08:58:46.019Z,1014.23
2016-06-08T08:59:46.007Z,1014.21
2016-06-08T09:00:46.008Z,1014.24
2016-06-08T09:01:45.996Z,1014.32
2016-06-08T09:02:46.015Z,1014.34
2016-06-08T09:03:45.986Z,1014.28
2016-06-08T09:04:45.973Z,1014.27
2016-06-08T09:05:45.975Z,1014.27
2016-06-08T09:06:45.962Z,1014.27
2016-06-08T09:07:45.965Z,1014.26
2016-06-08T09:08:45.952Z,1014.29
2016-06-08T09:09:45.939Z,1014.34
2016-06-08T09:10:45.942Z,1014.31
2016-06-08T09:11:45.928Z,1014.32
2016-06-08T09:12:45.931Z,1014.32
2016-06-08T09:13:45.966Z,1014.36
2016-06-08T09:14:45.906Z,1014.36
2016-06-08T09:15:45.908Z,1014.34
2016-06-08T09:16:45.896Z,1014.34
2016-06-08T09:17:45.899Z,1014.38
2016-06-08T09:18:45.885Z,1014.39
2016-06-08T09:19:45.888Z,1014.35
2016-06-08T09:20:45.860Z,1014.38
2016-06-08T09:21:45.863Z,1014.4
2016-06-08T09:22:45.865Z,1014.43
2016-06-08T09:23:45.852Z,1014.44
2016-06-08T09:24:45.854Z,1014.38
2016-06-08T09:25:45.841Z,1014.35
2016-06-08T09:26:45.829Z,1014.38
2016-06-08T09:27:45.832Z,1014.35
2016-06-08T09:28:45.834Z,1014.36
2016-06-08T09:29:45.820Z,1014.37
2016-06-08T09:30:45.824Z,1014.32
2016-06-08T09:31:45.811Z,1014.3
2016-06-08T09:32:45.814Z,1014.29
2016-06-08T09:33:45.800Z,1014.28
2016-06-08T09:34:45.803Z,1014.27
2016-06-08T09:35:45.790Z,1014.28
2016-06-08T09:36:45.792Z,1014.29
2016-06-08T09:37:45.780Z,1014.28
2016-06-08T09:38:46.048Z,1014.32
2016-06-08T09:39:45.770Z,1014.29
2016-06-08T09:40:45.804Z,1014.32
2016-06-08T09:41:45.759Z,1014.33
2016-06-08T09:42:45.762Z,1014.3
2016-06-08T09:43:45.765Z,1014.32
2016-06-08T09:44:46.253Z,1014.29
2016-06-08T09:45:45.755Z,1014.32
2016-06-08T09:46:45.805Z,1014.27
2016-06-08T09:47:45.744Z,1014.29
2016-06-08T09:48:45.732Z,1014.23
2016-06-08T09:49:45.735Z,1014.19
2016-06-08T09:50:45.737Z,1014.2
2016-06-08T09:51:45.724Z,1014.17
2016-06-08T09:52:45.726Z,1014.2
2016-06-08T09:53:45.714Z,1014.17
2016-06-08T09:54:45.716Z,1014.16
2016-06-08T09:55:45.719Z,1014.16
2016-06-08T09:56:45.706Z,1014.17
2016-06-08T09:57:45.709Z,1014.19
2016-06-08T09:58:45.696Z,1014.2
2016-06-08T09:59:45.823Z,1014.19
2016-06-08T10:00:45.685Z,1014.18
2016-06-08T10:01:45.704Z,1014.13
2016-06-08T10:02:45.676Z,1014.18
2016-06-08T10:03:45.678Z,1014.21
2016-06-08T10:04:45.665Z,1014.19
2016-06-08T10:05:45.668Z,1014.2
2016-06-08T10:06:45.656Z,1014.21
2016-06-08T10:07:45.659Z,1014.23
2016-06-08T10:08:45.660Z,1014.2
2016-06-08T10:09:45.648Z,1014.18
2016-06-08T10:10:45.650Z,1014.23
2016-06-08T10:11:45.637Z,1014.19
2016-06-08T10:12:45.640Z,1014.22
2016-06-08T10:13:45.627Z,1014.19
2016-06-08T10:14:45.630Z,1014.15
2016-06-08T10:15:45.633Z,1014.16
2016-06-08T10:16:45.620Z,1014.16
2016-06-08T10:17:45.606Z,1014.12
2016-06-08T10:18:45.608Z,1014.15
2016-06-08T10:19:45.611Z,1014.13
2016-06-08T10:20:45.614Z,1014.17
2016-06-08T10:21:45.602Z,1014.1
2016-06-08T10:22:45.604Z,1014.1
2016-06-08T10:23:45.591Z,1014.1
2016-06-08T10:24:45.593Z,1014.09
2016-06-08T10:25:45.581Z,1014.08
2016-06-08T10:26:45.584Z,1014.07
2016-06-08T10:27:45.587Z,1014.03
2016-06-08T10:28:46.277Z,1014.04
2016-06-08T10:29:45.732Z,1014.04
2016-06-08T10:30:45.563Z,1014.1
2016-06-08T10:31:45.565Z,1014.13
2016-06-08T10:32:45.569Z,1014.09
2016-06-08T10:33:45.571Z,1014.07
2016-06-08T10:34:45.559Z,1014.11
2016-06-08T10:35:45.545Z,1014.1
2016-06-08T10:36:45.548Z,1014.06
2016-06-08T10:37:45.551Z,1014.04
2016-06-08T10:38:45.538Z,1014.06
2016-06-08T10:39:45.540Z,1014.02
2016-06-08T10:40:45.528Z,1014.05
2016-06-08T10:41:45.531Z,1013.97
2016-06-08T10:42:45.517Z,1014.03
2016-06-08T10:43:45.520Z,1013.98
2016-06-08T10:44:45.523Z,1013.96
2016-06-08T10:45:45.525Z,1014
2016-06-08T10:46:45.513Z,1013.98
2016-06-08T10:47:45.499Z,1013.99
2016-06-08T10:48:45.502Z,1013.95
2016-06-08T10:49:45.489Z,1013.98
2016-06-08T10:50:45.492Z,1014.01
2016-06-08T10:51:45.479Z,1013.98
2016-06-08T10:52:45.950Z,1013.93
2016-06-08T10:53:45.469Z,1014
2016-06-08T10:54:45.472Z,1014.02
2016-06-08T10:55:45.458Z,1014
2016-06-08T10:56:45.460Z,1014
2016-06-08T10:57:45.448Z,1013.98
2016-06-08T10:58:46.279Z,1013.98
2016-06-08T10:59:45.454Z,1013.97
2016-06-08T11:00:45.441Z,1013.98
2016-06-08T11:01:45.444Z,1013.97
2016-06-08T11:02:45.431Z,1013.96
2016-06-08T11:03:45.434Z,1013.95
2016-06-08T11:04:45.420Z,1013.89
2016-06-08T11:05:45.407Z,1013.93
2016-06-08T11:06:45.410Z,1013.91
2016-06-08T11:07:45.413Z,1013.86
2016-06-08T11:08:45.400Z,1013.93
2016-06-08T11:09:45.403Z,1013.91
2016-06-08T11:10:45.389Z,1013.91
2016-06-08T11:11:45.376Z,1013.92
2016-06-08T11:12:45.379Z,1013.9
2016-06-08T11:13:47.647Z,1013.9
2016-06-08T11:14:45.369Z,1013.9
2016-06-08T11:15:45.356Z,1013.89
2016-06-08T11:16:45.358Z,1013.89
2016-06-08T11:17:45.346Z,1013.86
2016-06-08T11:18:45.349Z,1013.88
2016-06-08T11:19:45.335Z,1013.9
2016-06-08T11:20:45.339Z,1013.86
2016-06-08T11:21:45.326Z,1013.94
2016-06-08T11:22:45.327Z,1013.94
2016-06-08T11:23:45.316Z,1013.93
2016-06-08T11:24:45.318Z,1013.94
2016-06-08T11:25:45.305Z,1013.9
2016-06-08T11:26:45.292Z,1013.94
2016-06-08T11:27:45.294Z,1013.94
2016-06-08T11:28:45.282Z,1013.92
2016-06-08T11:29:45.582Z,1013.89
2016-06-08T11:30:45.271Z,1013.88
2016-06-08T11:31:45.274Z,1013.86
2016-06-08T11:32:45.262Z,1013.86
2016-06-08T11:33:45.248Z,1013.86
2016-06-08T11:34:45.251Z,1013.88
2016-06-08T11:35:45.238Z,1013.83
2016-06-08T11:36:45.240Z,1013.83
2016-06-08T11:37:45.228Z,1013.84
2016-06-08T11:38:45.230Z,1013.86
2016-06-08T11:39:45.248Z,1013.87
2016-06-08T11:40:45.221Z,1013.89
2016-06-08T11:41:45.207Z,1013.84
2016-06-08T11:42:45.210Z,1013.86
2016-06-08T11:43:45.212Z,1013.86
2016-06-08T11:44:45.200Z,1013.89
2016-06-08T11:45:45.187Z,1013.85
2016-06-08T11:46:45.190Z,1013.87
2016-06-08T11:47:45.177Z,1013.89
2016-06-08T11:48:45.180Z,1013.9
2016-06-08T11:49:45.166Z,1013.86
2016-06-08T11:50:45.185Z,1013.82
2016-06-08T11:51:45.156Z,1013.79
2016-06-08T11:52:45.158Z,1013.82
2016-06-08T11:53:45.146Z,1013.88
2016-06-08T11:54:45.149Z,1013.81
2016-06-08T11:55:45.135Z,1013.82
2016-06-08T11:56:45.139Z,1013.8
2016-06-08T11:57:45.141Z,1013.76
2016-06-08T11:58:45.143Z,1013.83
2016-06-08T11:59:45.130Z,1013.8
2016-06-08T12:00:45.133Z,1013.8
2016-06-08T12:01:45.104Z,1013.77
2016-06-08T12:02:45.108Z,1013.75
2016-06-08T12:03:45.110Z,1013.76
2016-06-08T12:04:45.097Z,1013.77
2016-06-08T12:05:45.085Z,1013.77
2016-06-08T12:06:45.087Z,1013.75
2016-06-08T12:07:45.090Z,1013.74
2016-06-08T12:08:45.077Z,1013.73
2016-06-08T12:09:45.064Z,1013.76